Time;durP1;ratioP1;P1;durP2;ratioP2;P2;SDS_P1;SDS_P2;PMS_P1;PMS_P2;Temp;Humidity;BMP_temperature;BMP_pressure;BME280_temperature;BME280_humidity;BME280_pressure;Samples;Min_cycle;Max_cycle;Signal;HPM_P1;HPM_P2
2022/06/06 00:01:34;;;;;;;3.90;2.17;;;;;;;20.28;95.26;100221.19;5012564;28;20026;-62
2022/06/06 00:03:59;;;;;;;4.70;2.40;;;;;;;20.23;95.31;100209.81;5012583;28;20109;-62
2022/06/06 00:06:25;;;;;;;4.85;2.22;;;;;;;20.29;95.94;100208.53;5012057;28;20021;-62
2022/06/06 00:08:50;;;;;;;4.32;2.22;;;;;;;19.92;97.07;100214.72;5011453;28;20030;-62
2022/06/06 00:11:17;;;;;;;4.82;2.55;;;;;;;19.78;98.49;100207.53;5012075;28;20028;-62
2022/06/06 00:13:46;;;;;;;7.55;2.53;;;;;;;20.08;97.36;100218.09;4994939;28;20067;-62
2022/06/06 00:16:11;;;;;;;5.03;2.45;;;;;;;20.11;96.37;100221.47;5012319;28;20482;-62
2022/06/06 00:18:38;;;;;;;7.03;3.08;;;;;;;19.81;97.25;100223.53;5012369;28;20076;-62
2022/06/06 00:21:07;;;;;;;6.53;2.67;;;;;;;19.67;99.63;100220.84;5012206;28;20041;-62
2022/06/06 00:23:32;;;;;;;4.00;2.28;;;;;;;19.60;100.00;100219.56;5010106;28;20034;-62
2022/06/06 00:26:01;;;;;;;2.92;1.83;;;;;;;19.63;100.00;100214.81;4992240;28;20391;-62
2022/06/06 00:28:27;;;;;;;7.07;2.45;;;;;;;19.61;100.00;100199.69;4992376;28;20031;-62
2022/06/06 00:30:57;;;;;;;5.20;2.42;;;;;;;19.97;98.81;100213.41;4992447;28;20030;-64
2022/06/06 00:36:07;;;;;;;7.18;2.70;;;;;;;20.13;96.91;100216.78;4992490;28;20052;-64
2022/06/06 00:38:32;;;;;;;5.45;2.53;;;;;;;20.18;96.56;100217.38;4992284;28;20113;-64
2022/06/06 00:40:59;;;;;;;5.03;2.95;;;;;;;20.24;95.94;100210.69;4992203;28;20057;-64
2022/06/06 00:43:24;;;;;;;8.52;2.70;;;;;;;20.23;95.73;100214.38;5003062;28;20025;-64
2022/06/06 00:45:54;;;;;;;4.40;2.78;;;;;;;20.28;95.39;100215.78;5011707;28;20103;-64
2022/06/06 00:48:26;;;;;;;6.22;2.58;;;;;;;20.36;95.63;100215.25;5012031;28;20369;-64
2022/06/06 00:51:06;;;;;;;4.82;2.30;;;;;;;20.36;95.25;100205.28;5011793;28;20034;-64
2022/06/06 00:53:46;;;;;;;6.68;2.95;;;;;;;20.37;95.46;100204.34;5009096;28;20029;-64
2022/06/06 00:56:38;;;;;;;5.07;2.70;;;;;;;20.32;94.58;100202.91;4990836;28;20100;-64
2022/06/06 00:59:10;;;;;;;5.28;2.70;;;;;;;20.31;94.32;100199.34;4985357;28;20041;-64
2022/06/06 01:01:35;;;;;;;4.43;2.70;;;;;;;20.28;94.04;100207.66;4992152;28;20042;-64
2022/06/06 01:04:03;;;;;;;4.72;2.42;;;;;;;20.25;94.58;100201.59;4992180;28;20067;-63
2022/06/06 01:06:33;;;;;;;14.73;3.40;;;;;;;20.20;94.34;100193.81;4991933;28;20022;-63
2022/06/06 01:08:59;;;;;;;4.45;2.38;;;;;;;20.15;94.84;100176.19;4992102;28;20045;-63
2022/06/06 01:11:25;;;;;;;3.92;2.30;;;;;;;20.19;94.40;100192.09;4991662;28;20473;-63
2022/06/06 01:13:53;;;;;;;7.85;2.45;;;;;;;20.16;95.01;100188.75;4991738;28;20041;-63
2022/06/06 01:16:54;;;;;;;6.57;2.65;;;;;;;20.10;94.77;100187.28;4995728;28;20026;-63
2022/06/06 01:19:54;;;;;;;5.78;2.60;;;;;;;20.08;94.75;100185.69;5010078;28;20118;-63
2022/06/06 01:22:43;;;;;;;5.90;2.63;;;;;;;20.04;95.49;100187.72;5009620;28;20112;-64
2022/06/06 01:25:11;;;;;;;4.32;2.08;;;;;;;19.98;95.75;100187.28;4994683;28;20488;-64
2022/06/06 01:27:42;;;;;;;4.38;2.78;;;;;;;19.87;96.32;100179.91;4990107;28;20078;-64
2022/06/06 01:30:15;;;;;;;8.05;2.80;;;;;;;19.81;96.71;100191.13;4990148;28;20034;-64
2022/06/06 01:32:49;;;;;;;4.75;2.60;;;;;;;19.79;97.35;100187.66;4990585;28;20494;-63
2022/06/06 01:35:29;;;;;;;6.60;2.38;;;;;;;19.70;97.25;100185.59;4991698;28;20476;-64
2022/06/06 01:37:55;;;;;;;7.88;2.88;;;;;;;19.66;97.17;100184.06;4991452;28;20085;-64
2022/06/06 01:40:21;;;;;;;4.78;2.42;;;;;;;19.69;97.23;100191.94;4991447;28;20538;-63
2022/06/06 01:43:02;;;;;;;5.50;2.70;;;;;;;19.69;97.34;100189.25;4991411;28;20034;-63
2022/06/06 01:45:41;;;;;;;4.72;2.55;;;;;;;19.67;97.38;100186.66;4991416;28;20026;-63
2022/06/06 01:48:14;;;;;;;5.45;2.70;;;;;;;19.65;97.18;100185.03;4990370;28;20117;-63
2022/06/06 01:50:43;;;;;;;7.20;2.90;;;;;;;19.59;97.56;100174.63;4989538;28;20073;-63
2022/06/06 01:53:12;;;;;;;5.00;2.70;;;;;;;19.61;97.25;100172.69;4996683;28;20406;-63
2022/06/06 01:55:39;;;;;;;6.55;2.92;;;;;;;19.62;97.90;100169.03;4991023;28;20030;-63
2022/06/06 01:58:09;;;;;;;6.53;2.83;;;;;;;19.64;98.18;100175.19;4994080;28;20502;-63
2022/06/06 02:00:37;;;;;;;4.20;2.55;;;;;;;19.40;99.69;100175.00;5008750;28;20769;-63
2022/06/06 02:03:03;;;;;;;11.82;3.53;;;;;;;19.31;100.00;100177.41;5014797;28;20374;-63
2022/06/06 02:05:29;;;;;;;5.07;3.15;;;;;;;19.27;100.00;100173.19;5014721;28;20044;-63
2022/06/06 02:07:55;;;;;;;7.20;3.00;;;;;;;19.18;100.00;100165.66;5014531;28;20385;-63
2022/06/06 02:10:21;;;;;;;5.20;2.90;;;;;;;19.24;100.00;100168.84;5014548;28;20037;-63
2022/06/06 02:12:47;;;;;;;6.57;3.10;;;;;;;19.51;100.00;100172.44;5014716;28;20453;-63
2022/06/06 02:15:16;;;;;;;4.15;2.42;;;;;;;19.30;100.00;100157.69;5013424;28;20057;-63
2022/06/06 02:17:42;;;;;;;5.00;2.60;;;;;;;19.28;100.00;100164.97;5012859;28;20485;-63
2022/06/06 02:20:11;;;;;;;6.57;2.70;;;;;;;19.28;100.00;100174.91;5013285;28;20026;-63
2022/06/06 02:22:37;;;;;;;6.07;3.10;;;;;;;19.27;100.00;100167.78;5012567;28;20061;-63
2022/06/06 02:25:04;;;;;;;6.57;3.05;;;;;;;19.31;100.00;100169.31;4998307;28;20044;-63
2022/06/06 02:27:30;;;;;;;4.20;2.63;;;;;;;19.25;100.00;100164.31;4993097;28;20061;-63
2022/06/06 02:29:55;;;;;;;6.00;3.00;;;;;;;19.32;100.00;100165.69;4994273;28;20034;-63
2022/06/06 02:32:21;;;;;;;5.50;2.70;;;;;;;19.31;100.00;100161.25;4994791;28;20036;-63
2022/06/06 02:34:47;;;;;;;4.97;2.80;;;;;;;19.33;100.00;100164.69;4994645;28;20486;-63
2022/06/06 02:37:13;;;;;;;5.57;2.80;;;;;;;19.29;100.00;100163.19;4994280;28;20025;-63
2022/06/06 02:39:38;;;;;;;5.03;3.22;;;;;;;19.29;100.00;100160.50;4994515;28;20085;-63
2022/06/06 02:42:04;;;;;;;6.30;2.85;;;;;;;19.48;100.00;100166.41;4994671;28;20390;-63
2022/06/06 02:44:29;;;;;;;5.05;3.15;;;;;;;19.60;100.00;100160.19;4994588;28;20038;-63
2022/06/06 02:46:55;;;;;;;5.72;3.17;;;;;;;19.66;100.00;100165.16;4994406;28;20117;-63
2022/06/06 02:49:20;;;;;;;6.63;4.05;;;;;;;19.68;99.63;100160.53;5013159;28;20353;-64
2022/06/06 02:51:46;;;;;;;8.00;3.15;;;;;;;19.71;100.00;100163.03;5013946;28;20531;-63
2022/06/06 02:54:11;;;;;;;6.45;3.05;;;;;;;19.73;100.00;100152.13;5006430;28;20053;-63
2022/06/06 02:56:36;;;;;;;5.20;2.80;;;;;;;19.71;99.72;100152.22;5006212;28;20465;-63
2022/06/06 02:59:05;;;;;;;6.47;3.15;;;;;;;19.72;100.00;100158.50;5013787;28;20018;-63
2022/06/06 03:01:31;;;;;;;7.47;3.00;;;;;;;19.69;100.00;100158.72;4996229;28;20068;-63
2022/06/06 03:03:57;;;;;;;5.13;3.17;;;;;;;19.62;100.00;100156.41;5013753;28;20484;-63
2022/06/06 03:07:17;;;;;;;6.18;3.35;;;;;;;19.69;100.00;100156.84;5012757;28;20029;-63
2022/06/06 03:10:02;;;;;;;18.60;5.03;;;;;;;19.64;100.00;100150.91;4952863;29;20039;-63
2022/06/06 03:12:47;;;;;;;8.77;3.22;;;;;;;19.72;100.00;100163.91;5009144;28;20057;-63
2022/06/06 03:15:26;;;;;;;5.93;3.45;;;;;;;19.50;100.00;100164.47;5013226;28;20034;-63
2022/06/06 03:21:13;;;;;;;7.15;3.65;;;;;;;19.70;100.00;100160.44;5013796;28;20432;-63
2022/06/06 03:23:54;;;;;;;6.38;2.97;;;;;;;19.74;100.00;100160.09;5013306;28;20030;-63
2022/06/06 03:26:50;;;;;;;6.18;3.67;;;;;;;19.76;100.00;100162.69;5013115;28;20140;-63
2022/06/06 03:29:57;;;;;;;5.97;3.30;;;;;;;19.74;99.90;100161.94;5013045;28;20111;-63
2022/06/06 03:33:01;;;;;;;7.15;3.97;;;;;;;19.72;100.00;100164.75;4933411;29;20031;-63
2022/06/06 03:35:34;;;;;;;6.75;3.78;;;;;;;19.68;100.00;100168.63;5013162;28;20054;-63
2022/06/06 03:38:05;;;;;;;5.35;3.50;;;;;;;19.61;100.00;100173.56;5013169;28;20151;-63
2022/06/06 03:40:36;;;;;;;6.35;3.85;;;;;;;19.61;100.00;100175.41;5013270;28;20026;-63
2022/06/06 03:43:17;;;;;;;5.82;3.60;;;;;;;19.60;100.00;100177.22;5012961;28;20033;-64
2022/06/06 03:46:10;;;;;;;7.97;3.70;;;;;;;19.60;100.00;100179.91;5012994;28;20036;-64
2022/06/06 03:48:51;;;;;;;5.72;3.60;;;;;;;19.63;100.00;100176.16;5012065;28;20145;-63
2022/06/06 03:52:01;;;;;;;7.88;3.65;;;;;;;19.63;100.00;100168.06;5012825;28;20037;-63
2022/06/06 03:54:57;;;;;;;6.05;3.65;;;;;;;19.65;100.00;100177.78;4994770;28;20096;-63
2022/06/06 03:57:25;;;;;;;8.65;3.63;;;;;;;19.64;100.00;100172.50;5012932;28;20030;-63
2022/06/06 03:59:57;;;;;;;9.27;4.88;;;;;;;19.64;100.00;100172.50;5012583;28;20033;-63
2022/06/06 04:02:28;;;;;;;6.43;4.05;;;;;;;19.65;100.00;100174.25;5012347;28;20505;-63
2022/06/06 04:04:55;;;;;;;9.13;3.97;;;;;;;19.60;99.95;100177.22;5012227;28;20036;-63
2022/06/06 04:07:21;;;;;;;5.88;3.53;;;;;;;19.60;100.00;100177.22;5012481;28;20034;-63
2022/06/06 04:09:47;;;;;;;6.50;3.65;;;;;;;19.65;100.00;100174.25;5012161;28;20091;-63
2022/06/06 04:12:35;;;;;;;6.78;3.67;;;;;;;19.64;100.00;100172.50;5012630;28;20498;-63
2022/06/06 04:15:19;;;;;;;7.40;3.80;;;;;;;19.64;99.99;100175.19;5011559;28;20025;-63
2022/06/06 04:18:26;;;;;;;6.85;3.75;;;;;;;19.66;100.00;100173.25;5012050;28;20418;-63
2022/06/06 04:21:07;;;;;;;10.23;4.60;;;;;;;19.74;99.56;100170.03;4951127;29;20031;-64
2022/06/06 04:24:15;;;;;;;8.65;4.30;;;;;;;19.72;100.00;100163.91;4951109;29;20054;-64
2022/06/06 04:27:06;;;;;;;7.32;3.65;;;;;;;19.78;99.46;100175.13;5005056;28;20058;-64
2022/06/06 04:30:13;;;;;;;7.35;3.17;;;;;;;19.70;99.28;100177.50;5012058;28;20056;-64
2022/06/06 04:33:06;;;;;;;8.35;3.47;;;;;;;19.80;100.00;100173.22;5001402;28;20041;-64
2022/06/06 04:35:48;;;;;;;5.97;3.28;;;;;;;19.87;99.14;100171.81;5012074;28;20083;-64
2022/06/06 04:38:35;;;;;;;7.50;4.07;;;;;;;20.00;99.26;100177.25;5011925;28;20030;-64
2022/06/06 04:41:13;;;;;;;10.65;3.72;;;;;;;20.09;98.29;100180.19;5012082;28;20026;-64
2022/06/06 04:44:03;;;;;;;6.60;3.30;;;;;;;20.14;97.36;100178.03;5011670;28;20113;-64
2022/06/06 04:46:47;;;;;;;7.05;3.30;;;;;;;20.12;96.37;100174.56;5012007;28;20100;-64
2022/06/06 04:49:13;;;;;;;6.90;3.65;;;;;;;20.13;95.18;100176.28;5011820;28;20026;-64
2022/06/06 04:51:41;;;;;;;6.43;3.28;;;;;;;20.06;95.87;100179.50;5012011;28;20500;-64
2022/06/06 04:54:10;;;;;;;7.63;4.05;;;;;;;20.07;96.22;100190.22;5011720;28;20066;-64
2022/06/06 04:56:37;;;;;;;4.85;3.17;;;;;;;20.09;95.91;100185.56;5010143;28;20029;-64
2022/06/06 04:59:03;;;;;;;5.07;3.17;;;;;;;20.14;96.06;100182.56;5009386;28;20108;-64
2022/06/06 05:01:28;;;;;;;5.95;3.58;;;;;;;20.18;96.18;100190.34;5009968;28;20088;-64
2022/06/06 05:03:54;;;;;;;7.18;3.40;;;;;;;20.16;95.92;100192.31;5009836;28;20080;-64
2022/06/06 05:06:58;;;;;;;5.90;3.60;;;;;;;20.19;96.28;100192.09;5009484;28;20469;-64
2022/06/06 05:09:53;;;;;;;7.60;3.70;;;;;;;20.22;95.70;100191.91;4988019;28;20504;-64
2022/06/06 05:12:25;;;;;;;5.75;3.40;;;;;;;20.28;95.28;100199.56;5010862;28;20038;-64
2022/06/06 05:14:53;;;;;;;5.30;3.42;;;;;;;20.30;95.68;100197.63;5011410;28;20091;-64
2022/06/06 05:17:28;;;;;;;5.13;3.30;;;;;;;20.44;95.06;100199.38;5010925;28;20437;-64
2022/06/06 05:20:02;;;;;;;5.90;3.38;;;;;;;20.56;94.57;100196.66;5011082;28;20129;-64
2022/06/06 05:22:46;;;;;;;5.35;3.38;;;;;;;20.61;93.78;100197.19;5011496;28;20029;-64
2022/06/06 05:25:31;;;;;;;5.53;3.17;;;;;;;20.67;93.10;100195.91;4995292;28;20486;-64
2022/06/06 05:28:22;;;;;;;5.55;2.90;;;;;;;20.78;91.31;100202.28;4991496;28;20046;-64
2022/06/06 05:31:17;;;;;;;10.70;4.03;;;;;;;20.94;90.80;100200.22;4990940;28;20038;-64
2022/06/06 05:33:55;;;;;;;5.30;3.30;;;;;;;21.05;89.99;100209.41;4991748;28;20038;-64
2022/06/06 05:36:43;;;;;;;6.85;3.13;;;;;;;20.94;89.18;100197.50;4991342;28;20030;-64
2022/06/06 05:39:13;;;;;;;8.63;3.75;;;;;;;20.93;88.99;100206.59;4991692;28;20432;-64
2022/06/06 05:41:59;;;;;;;7.60;3.40;;;;;;;20.96;88.82;100210.91;4991880;28;20030;-64
2022/06/06 05:44:50;;;;;;;6.10;3.75;;;;;;;21.05;89.12;100204.00;4991404;28;20035;-64
2022/06/06 05:47:40;;;;;;;5.53;3.22;;;;;;;21.20;88.37;100202.91;4988531;28;20062;-64
2022/06/06 05:50:36;;;;;;;6.53;3.28;;;;;;;21.31;87.35;100217.38;4991322;28;20105;-64
2022/06/06 05:53:35;;;;;;;8.18;3.28;;;;;;;21.41;86.44;100222.97;4991422;28;20129;-65
2022/06/06 05:56:31;;;;;;;7.43;3.40;;;;;;;21.45;86.60;100225.31;4998663;28;20033;-65
2022/06/06 05:59:15;;;;;;;4.70;3.20;;;;;;;21.46;85.71;100231.63;5010949;28;20030;-65
2022/06/06 06:02:10;;;;;;;6.00;3.30;;;;;;;21.45;85.91;100229.91;5011117;28;20033;-65
2022/06/06 06:04:46;;;;;;;6.32;3.20;;;;;;;21.41;85.67;100234.66;5010858;28;20021;-65
2022/06/06 06:07:30;;;;;;;6.10;3.47;;;;;;;21.44;85.29;100234.44;5010792;28;20116;-65
2022/06/06 06:10:05;;;;;;;5.07;3.17;;;;;;;21.44;85.58;100236.28;5010638;28;20112;-65
2022/06/06 06:12:47;;;;;;;5.50;3.45;;;;;;;21.46;84.78;100231.63;5010705;28;20030;-65
2022/06/06 06:15:27;;;;;;;6.60;2.95;;;;;;;21.10;86.61;100223.47;5010558;28;20609;-65
2022/06/06 06:17:55;;;;;;;5.97;3.22;;;;;;;21.50;86.05;100230.44;5010336;28;20107;-65
2022/06/06 06:20:28;;;;;;;5.15;3.55;;;;;;;21.63;84.37;100225.81;5010791;28;20038;-64
2022/06/06 06:23:00;;;;;;;6.75;2.92;;;;;;;21.27;84.90;100204.19;5009513;28;20029;-64
2022/06/06 06:25:26;;;;;;;4.70;3.00;;;;;;;21.49;84.18;100237.66;5006937;28;20046;-64
2022/06/06 06:27:57;;;;;;;7.25;3.58;;;;;;;21.58;82.92;100238.84;5010625;28;20052;-64
2022/06/06 06:30:25;;;;;;;6.50;3.00;;;;;;;21.64;82.75;100243.78;5010627;28;20037;-64
2022/06/06 06:33:05;;;;;;;5.63;3.50;;;;;;;21.83;83.18;100246.88;5010643;28;20107;-65
2022/06/06 06:35:52;;;;;;;6.18;3.03;;;;;;;22.03;80.63;100254.38;5010757;28;20528;-64
2022/06/06 06:39:01;;;;;;;5.43;2.90;;;;;;;22.05;79.79;100249.72;5010566;28;20030;-64
2022/06/06 06:41:40;;;;;;;4.32;2.55;;;;;;;22.11;78.55;100262.78;4948887;28;20463;-64
2022/06/06 06:44:11;;;;;;;8.43;2.90;;;;;;;22.11;78.86;100251.94;5014296;28;20030;-64
2022/06/06 06:46:57;;;;;;;5.63;3.10;;;;;;;22.05;78.28;100257.84;5014032;28;20034;-64
2022/06/06 06:49:35;;;;;;;7.85;3.03;;;;;;;22.13;79.84;100255.41;5014224;28;20412;-64
2022/06/06 06:52:19;;;;;;;6.05;3.13;;;;;;;22.12;77.72;100262.66;5014208;28;20087;-64
2022/06/06 06:55:09;;;;;;;5.90;2.67;;;;;;;22.27;77.25;100267.91;5001792;28;20101;-64
2022/06/06 06:57:44;;;;;;;8.02;2.72;;;;;;;22.39;77.17;100266.97;4994341;28;20022;-64
2022/06/06 07:00:15;;;;;;;8.10;3.38;;;;;;;22.42;77.01;100267.56;4997389;28;20033;-64
2022/06/06 07:09:25;;;;;;;6.88;2.65;;;;;;;22.83;74.96;100262.53;4952881;29;20039;-64
2022/06/06 07:11:51;;;;;;;;;;;;;;;22.95;73.62;100267.00;5008519;28;20366;-64
2022/06/06 07:14:49;;;;;;;7.53;2.60;;;;;;;22.98;73.83;100272.16;5013833;28;20296;-64
2022/06/06 07:17:15;;;;;;;5.35;2.90;;;;;;;23.38;75.13;100262.59;5013233;28;20276;-64
2022/06/06 07:19:51;;;;;;;5.03;3.05;;;;;;;23.74;69.62;100252.44;5013510;28;20440;-64
2022/06/06 07:22:18;;;;;;;6.32;2.90;;;;;;;23.88;69.16;100263.00;5013554;28;20525;-64
2022/06/06 07:24:47;;;;;;;5.68;2.90;;;;;;;23.98;67.83;100264.00;5001448;28;20524;-64
2022/06/06 07:27:13;;;;;;;4.32;2.50;;;;;;;24.20;67.36;100266.63;4993621;28;20053;-64
2022/06/06 07:29:38;;;;;;;4.72;2.70;;;;;;;24.56;67.73;100263.50;4993820;28;20482;-64
2022/06/06 07:32:34;;;;;;;3.88;2.35;;;;;;;24.73;65.99;100267.50;4993621;28;20022;-64
2022/06/06 07:35:29;;;;;;;7.00;2.92;;;;;;;24.75;65.61;100271.81;4993645;28;20037;-64
2022/06/06 07:38:16;;;;;;;4.20;2.50;;;;;;;24.83;65.18;100265.72;4993525;28;20434;-64
2022/06/06 07:41:10;;;;;;;5.13;2.53;;;;;;;25.00;64.75;100271.41;4993476;28;20022;-64
2022/06/06 07:44:01;;;;;;;4.82;2.28;;;;;;;25.06;63.45;100262.69;4993528;28;20033;-64
2022/06/06 07:47:19;;;;;;;4.63;2.42;;;;;;;25.52;63.33;100252.16;4993729;28;20500;-64
2022/06/06 07:49:54;;;;;;;4.38;2.72;;;;;;;26.10;60.65;100246.84;4933246;29;20062;-64
2022/06/06 07:52:41;;;;;;;4.82;2.55;;;;;;;26.41;59.71;100248.44;4991434;28;20153;-64
2022/06/06 07:55:28;;;;;;;3.60;2.20;;;;;;;26.89;57.57;100246.50;5008313;28;20445;-64
2022/06/06 07:58:17;;;;;;;5.53;2.20;;;;;;;27.15;55.11;100232.06;5010883;28;20032;-64
2022/06/06 08:00:49;;;;;;;4.40;2.33;;;;;;;27.23;56.04;100239.53;5011104;28;20493;-64
2022/06/06 08:03:28;;;;;;;5.72;2.53;;;;;;;27.40;55.46;100232.44;5012815;28;20025;-64
2022/06/06 08:06:12;;;;;;;4.00;2.08;;;;;;;27.45;54.60;100233.69;5012330;28;20509;-64
2022/06/06 08:08:38;;;;;;;;;;;;;;;27.59;53.08;100229.59;5006339;28;20041;-65
2022/06/06 08:11:21;;;;;;;5.78;2.17;;;;;;;27.87;52.07;100225.81;5008743;28;19909;-64
2022/06/06 08:14:03;;;;;;;5.23;2.20;;;;;;;28.44;51.11;100228.09;5008173;28;20038;-63
2022/06/06 08:16:39;;;;;;;3.80;1.92;;;;;;;28.27;50.14;100224.34;5008647;28;20383;-64
2022/06/06 08:19:23;;;;;;;3.90;2.05;;;;;;;28.17;49.93;100220.84;5009205;28;20478;-64
2022/06/06 08:21:50;;;;;;;2.63;1.90;;;;;;;28.22;50.67;100223.97;5010360;28;20026;-64
2022/06/06 08:24:22;;;;;;;2.95;2.00;;;;;;;27.58;51.23;100222.41;4998920;28;20017;-64
2022/06/06 08:26:50;;;;;;;5.30;2.33;;;;;;;27.74;52.41;100220.69;5009782;28;20053;-64
2022/06/06 08:29:17;;;;;;;3.78;2.33;;;;;;;27.80;50.53;100211.03;5009662;28;20040;-63
2022/06/06 08:31:43;;;;;;;4.43;1.60;;;;;;;27.97;49.48;100219.25;5010360;28;20433;-63
2022/06/06 08:34:09;;;;;;;3.55;2.00;;;;;;;27.20;50.44;100215.22;5010590;28;20036;-64
2022/06/06 08:36:57;;;;;;;3.60;2.10;;;;;;;27.23;51.96;100207.56;5010719;28;20033;-64
2022/06/06 08:39:50;;;;;;;3.80;1.92;;;;;;;28.08;49.97;100213.59;5010380;28;20026;-64
2022/06/06 08:42:55;;;;;;;3.70;2.00;;;;;;;27.96;50.53;100208.50;5010477;28;20041;-64
2022/06/06 08:45:24;;;;;;;3.58;1.85;;;;;;;27.89;51.22;100216.44;5008661;28;20061;-64
2022/06/06 08:48:17;;;;;;;3.25;2.30;;;;;;;27.23;53.45;100201.28;5005280;28;20057;-64
2022/06/06 08:51:08;;;;;;;2.50;1.65;;;;;;;26.54;52.37;100210.81;5008719;28;20461;-64
2022/06/06 08:54:07;;;;;;;3.20;1.83;;;;;;;26.12;52.47;100201.22;5004866;28;20034;-64
2022/06/06 08:56:54;;;;;;;2.97;1.77;;;;;;;25.84;53.47;100202.88;4989045;28;20041;-64
2022/06/06 08:59:40;;;;;;;2.97;1.80;;;;;;;25.50;53.75;100196.94;5003639;28;20041;-64
2022/06/06 09:02:36;;;;;;;2.80;1.63;;;;;;;25.50;54.76;100198.81;5008662;28;20033;-64
2022/06/06 09:05:37;;;;;;;2.92;1.70;;;;;;;25.50;54.75;100202.38;5008826;28;20140;-64
2022/06/06 09:08:25;;;;;;;4.05;1.92;;;;;;;25.51;57.06;100195.09;5008078;28;20021;-62
2022/06/06 09:11:11;;;;;;;3.00;2.03;;;;;;;25.46;55.99;100192.78;5007967;28;20046;-61
2022/06/06 09:14:01;;;;;;;4.13;1.83;;;;;;;26.49;53.61;100196.75;5001294;28;20100;-61
2022/06/06 09:17:24;;;;;;;2.67;1.65;;;;;;;27.36;49.52;100176.34;5008391;28;20033;-62
2022/06/06 09:20:35;;;;;;;3.80;1.95;;;;;;;27.49;48.88;100180.44;4968065;28;20073;-62
2022/06/06 09:23:37;;;;;;;3.25;1.75;;;;;;;26.80;49.24;100182.72;4949830;29;20090;-62
2022/06/06 09:26:12;;;;;;;2.42;1.50;;;;;;;26.15;50.27;100187.28;4992597;28;20406;-62
2022/06/06 09:29:02;;;;;;;2.30;1.60;;;;;;;25.67;53.04;100195.41;5007365;28;20050;-61
2022/06/06 09:31:46;;;;;;;3.50;1.60;;;;;;;25.15;53.63;100188.38;5007682;28;20036;-61
2022/06/06 09:34:49;;;;;;;3.10;1.80;;;;;;;24.71;57.74;100194.19;5007793;28;20037;-61
2022/06/06 09:37:32;;;;;;;2.23;1.37;;;;;;;24.32;63.09;100195.75;5007333;28;20025;-62
2022/06/06 09:40:15;;;;;;;;;;;;;;;23.74;65.68;100189.94;5007314;28;20044;-61
2022/06/06 09:43:08;;;;;;;8.75;2.08;;;;;;;23.38;70.24;100194.72;5009183;28;20456;-61
2022/06/06 09:45:58;;;;;;;2.92;1.95;;;;;;;23.27;72.75;100185.72;4989733;28;20038;-62
2022/06/06 09:49:19;;;;;;;3.60;2.10;;;;;;;23.12;74.77;100174.25;4996524;28;20045;-62
2022/06/06 09:52:21;;;;;;;5.35;2.17;;;;;;;22.85;77.88;100184.59;5005517;28;20048;-62
2022/06/06 09:59:09;;;;;;;5.40;2.22;;;;;;;22.89;79.96;100174.38;4974886;28;20026;-61
2022/06/06 10:01:41;;;;;;;3.95;2.47;;;;;;;22.91;80.35;100173.28;5000016;28;20057;-63
2022/06/06 10:04:45;;;;;;;4.07;2.50;;;;;;;22.97;81.36;100164.63;5009333;28;20482;-61
2022/06/06 10:07:48;;;;;;;4.07;2.50;;;;;;;23.07;80.83;100171.03;5009239;28;20480;-61
2022/06/06 10:10:51;;;;;;;4.57;2.53;;;;;;;23.17;78.56;100173.88;5009104;28;20068;-61
2022/06/06 10:13:35;;;;;;;4.32;2.28;;;;;;;23.29;78.08;100168.31;5008558;28;20237;-61
2022/06/06 10:16:14;;;;;;;6.00;2.50;;;;;;;23.38;77.94;100167.56;5009443;28;20553;-61
2022/06/06 10:18:55;;;;;;;4.50;2.50;;;;;;;23.60;78.14;100163.06;5004806;28;20040;-61
2022/06/06 10:21:20;;;;;;;7.60;2.85;;;;;;;23.93;75.60;100152.94;5012637;28;20029;-61
2022/06/06 10:24:23;;;;;;;5.35;2.40;;;;;;;25.29;72.06;100146.25;5011638;28;20030;-61
2022/06/06 10:27:13;;;;;;;4.53;2.50;;;;;;;26.02;60.70;100137.63;5012729;28;20046;-61
2022/06/06 10:30:13;;;;;;;6.88;2.08;;;;;;;25.88;60.52;100134.31;5012200;28;20095;-61
2022/06/06 10:33:01;;;;;;;4.65;2.10;;;;;;;25.71;63.56;100140.50;5013472;28;20385;-61
2022/06/06 10:35:30;;;;;;;4.07;2.05;;;;;;;25.57;63.12;100130.00;5012396;28;20477;-61
2022/06/06 10:38:02;;;;;;;3.13;1.90;;;;;;;25.60;60.95;100128.88;5012332;28;20030;-61
2022/06/06 10:40:36;;;;;;;5.85;2.30;;;;;;;25.96;62.61;100129.00;5012060;28;20391;-62
2022/06/06 10:43:38;;;;;;;4.25;2.10;;;;;;;26.39;58.36;100130.41;5012501;28;20037;-61
2022/06/06 10:46:06;;;;;;;4.10;2.15;;;;;;;26.63;53.18;100138.94;4973197;28;20037;-61
2022/06/06 10:48:56;;;;;;;2.55;1.65;;;;;;;27.04;53.94;100125.75;5012186;28;20036;-62
2022/06/06 10:51:59;;;;;;;3.65;1.90;;;;;;;26.82;49.80;100133.47;5010670;28;20057;-61
2022/06/06 10:54:36;;;;;;;2.83;1.60;;;;;;;26.58;52.42;100141.25;5009044;28;20044;-61
2022/06/06 10:57:23;;;;;;;2.70;1.70;;;;;;;26.34;54.02;100136.31;5007208;28;20036;-62
2022/06/06 11:00:17;;;;;;;4.07;2.00;;;;;;;26.21;55.35;100126.72;5006191;28;20030;-62
2022/06/06 11:03:17;;;;;;;4.13;2.17;;;;;;;26.02;54.48;100130.31;5008138;28;20021;-62
2022/06/06 11:06:22;;;;;;;3.92;2.03;;;;;;;25.78;55.66;100130.72;5002443;28;20025;-62
2022/06/06 11:09:12;;;;;;;8.75;2.47;;;;;;;25.69;59.05;100126.16;5008462;28;20081;-62
2022/06/06 11:12:06;;;;;;;6.53;2.95;;;;;;;25.70;55.80;100130.56;5009117;28;20042;-61
2022/06/06 11:14:44;;;;;;;4.55;2.22;;;;;;;25.79;54.06;100124.28;5003383;28;20374;-61
2022/06/06 11:17:37;;;;;;;3.67;2.15;;;;;;;26.17;55.08;100122.56;5010341;28;20057;-62
2022/06/06 11:20:21;;;;;;;5.35;2.13;;;;;;;26.81;54.92;100123.53;4999580;28;20038;-62
2022/06/06 11:22:59;;;;;;;3.90;1.92;;;;;;;27.13;53.35;100121.25;5005283;28;20033;-62
2022/06/06 11:25:25;;;;;;;4.32;1.92;;;;;;;27.39;50.29;100125.00;5009718;28;20038;-62
2022/06/06 11:28:21;;;;;;;4.22;1.85;;;;;;;27.62;51.09;100112.59;5008772;28;20773;-62
2022/06/06 11:31:12;;;;;;;4.07;1.67;;;;;;;27.68;48.34;100109.25;5011749;28;20034;-62
2022/06/06 11:34:08;;;;;;;3.60;1.45;;;;;;;27.69;50.52;100105.50;4966017;28;20057;-62
2022/06/06 11:37:13;;;;;;;3.13;1.60;;;;;;;27.73;49.45;100112.38;5013284;28;20381;-62
2022/06/06 11:40:00;;;;;;;3.65;1.85;;;;;;;27.61;52.14;100107.31;5012960;28;20026;-62
2022/06/06 11:42:35;;;;;;;3.05;1.48;;;;;;;27.38;51.05;100104.13;5012873;28;20034;-62
2022/06/06 11:45:12;;;;;;;2.30;1.30;;;;;;;27.36;51.32;100106.19;5012656;28;20040;-62
2022/06/06 11:48:09;;;;;;;2.28;1.20;;;;;;;27.28;48.96;100100.63;4983633;28;20034;-62
2022/06/06 11:50:55;;;;;;;3.33;1.30;;;;;;;27.05;48.95;100094.69;4996054;28;20095;-61
2022/06/06 11:53:27;;;;;;;1.75;1.10;;;;;;;27.40;48.73;100099.38;5011223;28;20337;-62
2022/06/06 11:56:02;;;;;;;5.38;1.50;;;;;;;27.47;47.80;100103.22;5010854;28;20034;-62
2022/06/06 11:58:33;;;;;;;3.55;2.15;;;;;;;27.71;48.87;100097.16;4998253;28;20250;-62
2022/06/06 12:01:26;;;;;;;4.07;1.63;;;;;;;27.91;46.22;100099.56;5010717;28;20444;-62
2022/06/06 12:03:54;;;;;;;3.57;1.97;;;;;;;28.26;47.76;100085.84;5011255;28;20109;-62
2022/06/06 12:06:38;;;;;;;2.35;1.48;;;;;;;28.27;46.13;100090.28;5010761;28;20291;-62
2022/06/06 12:09:12;;;;;;;2.45;1.30;;;;;;;28.50;47.65;100078.84;5012312;28;20026;-62
2022/06/06 12:12:00;;;;;;;2.28;1.35;;;;;;;28.38;45.32;100070.00;5011575;28;20057;-62
2022/06/06 12:14:31;;;;;;;4.43;1.63;;;;;;;28.21;47.38;100074.53;5011170;28;20042;-62
2022/06/06 12:17:11;;;;;;;4.53;1.30;;;;;;;27.45;45.80;100072.44;5010227;28;20104;-62
2022/06/06 12:20:07;;;;;;;2.75;1.50;;;;;;;26.95;48.89;100071.19;5012227;28;20036;-62
2022/06/06 12:22:46;;;;;;;3.22;2.25;;;;;;;26.58;48.70;100068.47;5012197;28;20078;-62
2022/06/06 12:25:33;;;;;;;8.60;1.58;;;;;;;26.24;49.80;100063.69;5012237;28;20030;-62
2022/06/06 12:28:30;;;;;;;3.35;1.70;;;;;;;25.91;50.28;100068.59;5012047;28;20030;-62
2022/06/06 12:31:01;;;;;;;3.85;1.63;;;;;;;25.52;51.09;100066.91;5012087;28;20523;-62
2022/06/06 12:33:35;;;;;;;3.42;1.48;;;;;;;25.34;53.08;100074.03;5011873;28;20137;-63
2022/06/06 12:36:14;;;;;;;3.50;1.65;;;;;;;25.04;52.96;100068.66;5007769;28;20031;-63
2022/06/06 12:38:58;;;;;;;3.38;1.60;;;;;;;24.90;53.36;100066.34;5009454;28;20076;-64
2022/06/06 12:41:59;;;;;;;5.03;1.77;;;;;;;24.85;55.28;100065.91;5010871;28;20385;-63